New Albin, Iowa
Current Conditions -  °F | °C
As of 7:35 PM on Thursday 27 Nov 2014 (Local Time) from KY51 Reporting Station
Clear Clear  
Wind Chill:   Ceiling: Unl
Heat Index:   Visibility: 10mi
Dew Point:   Wind: 3mph
Humidity: 74%   Direction: 230°SW
Pressure: 30.35"   Gusts: NA
Location:  43.5°N, 91.29°W
Report Text: KY51 280135Z AUTO 23003KT 10SM CLR M14/M18 A3035 RMK AO1 T11431180
Loading
Personal Weather Stations






























Interactive Weather Map New forecast layout! Learn more

10-Day Weather Forecast

Advertisements
Track Severe Weather on mobile